sensor_id;sensor_type;location;lat;lon;timestamp;temperature;humidity
11538;DHT22;50159;49.426;11.182;2022-07-19T00:00:41;17.60;62.90
11538;DHT22;50159;49.426;11.182;2022-07-19T00:03:15;17.50;63.00
11538;DHT22;50159;49.426;11.182;2022-07-19T00:05:48;17.40;63.10
11538;DHT22;50159;49.426;11.182;2022-07-19T00:08:15;17.40;63.40
11538;DHT22;50159;49.426;11.182;2022-07-19T00:10:42;17.30;63.50
11538;DHT22;50159;49.426;11.182;2022-07-19T00:13:09;17.30;63.60
11538;DHT22;50159;49.426;11.182;2022-07-19T00:15:39;17.30;63.90
11538;DHT22;50159;49.426;11.182;2022-07-19T00:18:06;17.20;63.90
11538;DHT22;50159;49.426;11.182;2022-07-19T00:20:33;17.20;64.20
11538;DHT22;50159;49.426;11.182;2022-07-19T00:22:59;17.10;64.30
11538;DHT22;50159;49.426;11.182;2022-07-19T00:25:26;17.10;64.70
11538;DHT22;50159;49.426;11.182;2022-07-19T00:27:53;17.00;65.20
11538;DHT22;50159;49.426;11.182;2022-07-19T00:30:20;17.00;65.70
11538;DHT22;50159;49.426;11.182;2022-07-19T00:32:47;16.90;66.00
11538;DHT22;50159;49.426;11.182;2022-07-19T00:35:15;16.90;66.20
11538;DHT22;50159;49.426;11.182;2022-07-19T00:37:41;16.90;66.60
11538;DHT22;50159;49.426;11.182;2022-07-19T00:40:19;16.80;66.90
11538;DHT22;50159;49.426;11.182;2022-07-19T00:42:48;16.80;67.50
11538;DHT22;50159;49.426;11.182;2022-07-19T00:45:17;16.70;67.80
11538;DHT22;50159;49.426;11.182;2022-07-19T00:47:43;16.70;68.00
11538;DHT22;50159;49.426;11.182;2022-07-19T00:50:10;16.60;68.30
11538;DHT22;50159;49.426;11.182;2022-07-19T00:52:39;16.50;68.50
11538;DHT22;50159;49.426;11.182;2022-07-19T00:55:09;16.50;69.10
11538;DHT22;50159;49.426;11.182;2022-07-19T00:57:37;16.40;69.60
11538;DHT22;50159;49.426;11.182;2022-07-19T01:00:07;16.40;70.00
11538;DHT22;50159;49.426;11.182;2022-07-19T01:02:37;16.40;70.20
11538;DHT22;50159;49.426;11.182;2022-07-19T01:05:06;16.30;70.60
11538;DHT22;50159;49.426;11.182;2022-07-19T01:07:34;16.30;71.00
11538;DHT22;50159;49.426;11.182;2022-07-19T01:10:05;16.30;71.50
11538;DHT22;50159;49.426;11.182;2022-07-19T01:12:35;16.30;71.90
11538;DHT22;50159;49.426;11.182;2022-07-19T01:15:18;16.20;72.20
11538;DHT22;50159;49.426;11.182;2022-07-19T01:17:48;16.20;72.50
11538;DHT22;50159;49.426;11.182;2022-07-19T01:20:16;16.20;73.00
11538;DHT22;50159;49.426;11.182;2022-07-19T01:22:45;16.10;73.70
11538;DHT22;50159;49.426;11.182;2022-07-19T01:25:13;16.10;74.10
11538;DHT22;50159;49.426;11.182;2022-07-19T01:27:45;16.00;74.40
11538;DHT22;50159;49.426;11.182;2022-07-19T01:30:16;16.00;74.50
11538;DHT22;50159;49.426;11.182;2022-07-19T01:32:46;16.00;74.90
11538;DHT22;50159;49.426;11.182;2022-07-19T01:35:14;15.90;75.10
11538;DHT22;50159;49.426;11.182;2022-07-19T01:37:41;15.90;75.40
11538;DHT22;50159;49.426;11.182;2022-07-19T01:40:11;15.90;75.60
11538;DHT22;50159;49.426;11.182;2022-07-19T01:42:40;15.90;76.00
11538;DHT22;50159;49.426;11.182;2022-07-19T01:45:09;15.80;76.30
11538;DHT22;50159;49.426;11.182;2022-07-19T01:47:37;15.80;76.60
11538;DHT22;50159;49.426;11.182;2022-07-19T01:50:05;15.70;76.80
11538;DHT22;50159;49.426;11.182;2022-07-19T01:52:33;15.80;77.00
11538;DHT22;50159;49.426;11.182;2022-07-19T01:55:01;15.80;77.30
11538;DHT22;50159;49.426;11.182;2022-07-19T01:57:28;15.70;77.50
11538;DHT22;50159;49.426;11.182;2022-07-19T01:59:56;15.70;77.90
11538;DHT22;50159;49.426;11.182;2022-07-19T02:02:23;15.60;78.30
11538;DHT22;50159;49.426;11.182;2022-07-19T02:04:50;15.60;78.80
11538;DHT22;50159;49.426;11.182;2022-07-19T02:07:17;15.60;79.10
11538;DHT22;50159;49.426;11.182;2022-07-19T02:09:44;15.60;79.10
11538;DHT22;50159;49.426;11.182;2022-07-19T02:12:11;15.60;79.20
11538;DHT22;50159;49.426;11.182;2022-07-19T02:14:38;15.50;79.50
11538;DHT22;50159;49.426;11.182;2022-07-19T02:17:05;15.50;79.80
11538;DHT22;50159;49.426;11.182;2022-07-19T02:19:32;15.50;80.10
11538;DHT22;50159;49.426;11.182;2022-07-19T02:21:59;15.50;80.40
11538;DHT22;50159;49.426;11.182;2022-07-19T02:24:25;15.40;80.60
11538;DHT22;50159;49.426;11.182;2022-07-19T02:26:52;15.40;80.70
11538;DHT22;50159;49.426;11.182;2022-07-19T02:29:19;15.40;80.90
11538;DHT22;50159;49.426;11.182;2022-07-19T02:31:46;15.30;81.30
11538;DHT22;50159;49.426;11.182;2022-07-19T02:34:13;15.30;81.70
11538;DHT22;50159;49.426;11.182;2022-07-19T02:36:40;15.30;81.90
11538;DHT22;50159;49.426;11.182;2022-07-19T02:39:06;15.30;82.30
11538;DHT22;50159;49.426;11.182;2022-07-19T02:41:33;15.20;82.70
11538;DHT22;50159;49.426;11.182;2022-07-19T02:44:00;15.20;83.00
11538;DHT22;50159;49.426;11.182;2022-07-19T02:46:27;15.20;83.50
11538;DHT22;50159;49.426;11.182;2022-07-19T02:48:54;15.20;83.80
11538;DHT22;50159;49.426;11.182;2022-07-19T02:51:21;15.10;83.90
11538;DHT22;50159;49.426;11.182;2022-07-19T02:53:48;15.10;84.50
11538;DHT22;50159;49.426;11.182;2022-07-19T02:56:14;15.10;84.60
11538;DHT22;50159;49.426;11.182;2022-07-19T02:58:41;15.00;85.20
11538;DHT22;50159;49.426;11.182;2022-07-19T03:01:08;14.90;86.20
11538;DHT22;50159;49.426;11.182;2022-07-19T03:03:35;14.90;87.00
11538;DHT22;50159;49.426;11.182;2022-07-19T03:06:14;14.80;87.50
11538;DHT22;50159;49.426;11.182;2022-07-19T03:08:43;14.80;88.20
11538;DHT22;50159;49.426;11.182;2022-07-19T03:11:11;14.70;88.70
11538;DHT22;50159;49.426;11.182;2022-07-19T03:13:38;14.70;89.40
11538;DHT22;50159;49.426;11.182;2022-07-19T03:16:06;14.70;90.30
11538;DHT22;50159;49.426;11.182;2022-07-19T03:18:33;14.70;90.00
11538;DHT22;50159;49.426;11.182;2022-07-19T03:21:00;14.70;90.00
11538;DHT22;50159;49.426;11.182;2022-07-19T03:23:31;14.70;90.00
11538;DHT22;50159;49.426;11.182;2022-07-19T03:25:59;14.60;90.30
11538;DHT22;50159;49.426;11.182;2022-07-19T03:28:26;15.00;90.70
11538;DHT22;50159;49.426;11.182;2022-07-19T03:30:53;14.60;90.70
11538;DHT22;50159;49.426;11.182;2022-07-19T03:33:20;14.60;90.90
11538;DHT22;50159;49.426;11.182;2022-07-19T03:35:47;14.60;91.10
11538;DHT22;50159;49.426;11.182;2022-07-19T03:38:14;14.60;91.10
11538;DHT22;50159;49.426;11.182;2022-07-19T03:40:45;14.60;91.50
11538;DHT22;50159;49.426;11.182;2022-07-19T03:43:15;14.60;92.10
11538;DHT22;50159;49.426;11.182;2022-07-19T03:45:43;14.60;92.50
11538;DHT22;50159;49.426;11.182;2022-07-19T03:48:11;14.60;92.80
11538;DHT22;50159;49.426;11.182;2022-07-19T03:50:39;14.60;93.20
11538;DHT22;50159;49.426;11.182;2022-07-19T03:53:06;14.60;93.50
11538;DHT22;50159;49.426;11.182;2022-07-19T03:55:33;14.50;93.80
11538;DHT22;50159;49.426;11.182;2022-07-19T03:58:00;14.60;93.90
11538;DHT22;50159;49.426;11.182;2022-07-19T04:00:27;14.50;93.80
11538;DHT22;50159;49.426;11.182;2022-07-19T04:02:54;14.60;93.80
11538;DHT22;50159;49.426;11.182;2022-07-19T04:05:21;14.60;93.80
11538;DHT22;50159;49.426;11.182;2022-07-19T04:07:48;14.50;94.10
11538;DHT22;50159;49.426;11.182;2022-07-19T04:10:15;14.50;94.50
11538;DHT22;50159;49.426;11.182;2022-07-19T04:12:42;14.60;94.70
11538;DHT22;50159;49.426;11.182;2022-07-19T04:15:09;14.60;95.00
11538;DHT22;50159;49.426;11.182;2022-07-19T04:17:36;14.60;94.90
11538;DHT22;50159;49.426;11.182;2022-07-19T04:20:04;14.70;94.90
11538;DHT22;50159;49.426;11.182;2022-07-19T04:22:32;14.70;95.00
11538;DHT22;50159;49.426;11.182;2022-07-19T04:24:59;14.70;95.10
11538;DHT22;50159;49.426;11.182;2022-07-19T04:27:29;14.70;95.20
11538;DHT22;50159;49.426;11.182;2022-07-19T04:29:57;14.80;95.30
11538;DHT22;50159;49.426;11.182;2022-07-19T04:32:24;14.90;95.40
11538;DHT22;50159;49.426;11.182;2022-07-19T04:34:51;14.90;95.50
11538;DHT22;50159;49.426;11.182;2022-07-19T04:37:18;14.90;95.40
11538;DHT22;50159;49.426;11.182;2022-07-19T04:39:45;15.00;99.90
11538;DHT22;50159;49.426;11.182;2022-07-19T04:42:12;15.10;99.70
11538;DHT22;50159;49.426;11.182;2022-07-19T04:44:39;15.10;99.70
11538;DHT22;50159;49.426;11.182;2022-07-19T04:47:06;15.20;99.60
11538;DHT22;50159;49.426;11.182;2022-07-19T04:49:33;15.20;99.40
11538;DHT22;50159;49.426;11.182;2022-07-19T04:52:00;15.30;99.00
11538;DHT22;50159;49.426;11.182;2022-07-19T04:54:27;15.30;98.40
11538;DHT22;50159;49.426;11.182;2022-07-19T04:56:54;15.40;98.10
11538;DHT22;50159;49.426;11.182;2022-07-19T04:59:21;15.50;98.00
11538;DHT22;50159;49.426;11.182;2022-07-19T05:01:48;15.60;98.00
11538;DHT22;50159;49.426;11.182;2022-07-19T05:04:19;15.70;98.20
11538;DHT22;50159;49.426;11.182;2022-07-19T05:06:46;15.80;98.00
11538;DHT22;50159;49.426;11.182;2022-07-19T05:09:12;16.00;97.80
11538;DHT22;50159;49.426;11.182;2022-07-19T05:11:44;16.00;97.70
11538;DHT22;50159;49.426;11.182;2022-07-19T05:14:11;16.20;97.60
11538;DHT22;50159;49.426;11.182;2022-07-19T05:16:38;16.30;97.10
11538;DHT22;50159;49.426;11.182;2022-07-19T05:19:06;16.40;97.00
11538;DHT22;50159;49.426;11.182;2022-07-19T05:21:33;16.50;97.00
11538;DHT22;50159;49.426;11.182;2022-07-19T05:24:00;16.60;96.90
11538;DHT22;50159;49.426;11.182;2022-07-19T05:26:27;16.70;97.10
11538;DHT22;50159;49.426;11.182;2022-07-19T05:28:54;16.80;97.10
11538;DHT22;50159;49.426;11.182;2022-07-19T05:31:21;17.00;97.10
11538;DHT22;50159;49.426;11.182;2022-07-19T05:33:48;17.10;96.90
11538;DHT22;50159;49.426;11.182;2022-07-19T05:36:15;17.20;96.70
11538;DHT22;50159;49.426;11.182;2022-07-19T05:38:41;17.30;96.60
11538;DHT22;50159;49.426;11.182;2022-07-19T05:41:09;17.40;96.70
11538;DHT22;50159;49.426;11.182;2022-07-19T05:43:37;17.50;96.40
11538;DHT22;50159;49.426;11.182;2022-07-19T05:46:05;17.70;96.10
11538;DHT22;50159;49.426;11.182;2022-07-19T05:48:32;17.80;95.60
11538;DHT22;50159;49.426;11.182;2022-07-19T05:50:59;17.90;95.30
11538;DHT22;50159;49.426;11.182;2022-07-19T05:53:27;18.10;95.30
11538;DHT22;50159;49.426;11.182;2022-07-19T05:55:54;18.30;95.00
11538;DHT22;50159;49.426;11.182;2022-07-19T05:58:22;18.50;94.60
11538;DHT22;50159;49.426;11.182;2022-07-19T06:00:50;18.60;94.30
11538;DHT22;50159;49.426;11.182;2022-07-19T06:03:36;18.80;94.10
11538;DHT22;50159;49.426;11.182;2022-07-19T06:06:03;19.00;93.80
11538;DHT22;50159;49.426;11.182;2022-07-19T06:08:30;19.20;93.20
11538;DHT22;50159;49.426;11.182;2022-07-19T06:10:57;19.30;92.70
11538;DHT22;50159;49.426;11.182;2022-07-19T06:13:31;19.50;92.40
11538;DHT22;50159;49.426;11.182;2022-07-19T06:15:57;19.70;92.10
11538;DHT22;50159;49.426;11.182;2022-07-19T06:18:24;19.90;90.90
11538;DHT22;50159;49.426;11.182;2022-07-19T06:20:51;20.10;90.00
11538;DHT22;50159;49.426;11.182;2022-07-19T06:23:18;20.40;88.30
11538;DHT22;50159;49.426;11.182;2022-07-19T06:25:46;20.60;86.20
11538;DHT22;50159;49.426;11.182;2022-07-19T06:28:13;20.80;84.20
11538;DHT22;50159;49.426;11.182;2022-07-19T06:30:39;21.10;81.00
11538;DHT22;50159;49.426;11.182;2022-07-19T06:33:06;21.30;77.70
11538;DHT22;50159;49.426;11.182;2022-07-19T06:35:33;21.60;73.10
11538;DHT22;50159;49.426;11.182;2022-07-19T06:38:00;21.90;71.50
11538;DHT22;50159;49.426;11.182;2022-07-19T06:40:27;22.10;69.40
11538;DHT22;50159;49.426;11.182;2022-07-19T06:42:54;22.30;67.60
11538;DHT22;50159;49.426;11.182;2022-07-19T06:45:21;22.50;65.70
11538;DHT22;50159;49.426;11.182;2022-07-19T06:47:48;22.70;63.90
11538;DHT22;50159;49.426;11.182;2022-07-19T06:50:18;22.90;63.20
11538;DHT22;50159;49.426;11.182;2022-07-19T06:53:05;23.10;61.10
11538;DHT22;50159;49.426;11.182;2022-07-19T06:55:32;23.40;52.70
11538;DHT22;50159;49.426;11.182;2022-07-19T06:57:59;23.70;51.90
11538;DHT22;50159;49.426;11.182;2022-07-19T07:00:25;23.90;50.90
11538;DHT22;50159;49.426;11.182;2022-07-19T07:02:52;24.10;49.70
11538;DHT22;50159;49.426;11.182;2022-07-19T07:05:19;24.20;49.30
11538;DHT22;50159;49.426;11.182;2022-07-19T07:07:47;24.40;49.50
11538;DHT22;50159;49.426;11.182;2022-07-19T07:10:15;24.50;48.40
11538;DHT22;50159;49.426;11.182;2022-07-19T07:12:42;24.70;48.10
11538;DHT22;50159;49.426;11.182;2022-07-19T07:15:09;24.80;48.90
11538;DHT22;50159;49.426;11.182;2022-07-19T07:17:36;25.00;48.30
11538;DHT22;50159;49.426;11.182;2022-07-19T07:20:05;25.10;47.40
11538;DHT22;50159;49.426;11.182;2022-07-19T07:22:34;25.30;47.20
11538;DHT22;50159;49.426;11.182;2022-07-19T07:25:03;25.50;46.40
11538;DHT22;50159;49.426;11.182;2022-07-19T07:27:31;25.50;45.70
11538;DHT22;50159;49.426;11.182;2022-07-19T07:29:58;25.70;45.30
11538;DHT22;50159;49.426;11.182;2022-07-19T07:32:26;25.90;45.10
11538;DHT22;50159;49.426;11.182;2022-07-19T07:34:54;26.10;44.90
11538;DHT22;50159;49.426;11.182;2022-07-19T07:37:21;26.30;44.50
11538;DHT22;50159;49.426;11.182;2022-07-19T07:39:48;26.40;44.20
11538;DHT22;50159;49.426;11.182;2022-07-19T07:42:15;26.60;44.00
11538;DHT22;50159;49.426;11.182;2022-07-19T07:44:42;26.70;43.40
11538;DHT22;50159;49.426;11.182;2022-07-19T07:47:09;26.80;42.90
11538;DHT22;50159;49.426;11.182;2022-07-19T07:49:39;27.00;42.60
11538;DHT22;50159;49.426;11.182;2022-07-19T07:52:06;27.10;41.20
11538;DHT22;50159;49.426;11.182;2022-07-19T07:54:34;27.20;40.80
11538;DHT22;50159;49.426;11.182;2022-07-19T07:57:07;27.30;41.00
11538;DHT22;50159;49.426;11.182;2022-07-19T07:59:35;27.40;40.60
11538;DHT22;50159;49.426;11.182;2022-07-19T08:02:03;27.50;40.60
11538;DHT22;50159;49.426;11.182;2022-07-19T08:04:30;27.60;39.30
11538;DHT22;50159;49.426;11.182;2022-07-19T08:06:57;27.80;39.30
11538;DHT22;50159;49.426;11.182;2022-07-19T08:09:24;27.90;39.20
11538;DHT22;50159;49.426;11.182;2022-07-19T08:11:51;28.00;39.60
11538;DHT22;50159;49.426;11.182;2022-07-19T08:14:18;28.10;38.80
11538;DHT22;50159;49.426;11.182;2022-07-19T08:16:45;28.30;38.50
11538;DHT22;50159;49.426;11.182;2022-07-19T08:19:12;28.40;38.20
11538;DHT22;50159;49.426;11.182;2022-07-19T08:21:39;28.60;37.00
11538;DHT22;50159;49.426;11.182;2022-07-19T08:24:06;28.70;35.90
11538;DHT22;50159;49.426;11.182;2022-07-19T08:26:38;28.80;36.00
11538;DHT22;50159;49.426;11.182;2022-07-19T08:29:05;28.90;36.10
11538;DHT22;50159;49.426;11.182;2022-07-19T08:31:34;29.00;35.40
11538;DHT22;50159;49.426;11.182;2022-07-19T08:34:01;29.10;35.60
11538;DHT22;50159;49.426;11.182;2022-07-19T08:36:28;29.20;35.10
11538;DHT22;50159;49.426;11.182;2022-07-19T08:38:55;29.30;34.40
11538;DHT22;50159;49.426;11.182;2022-07-19T08:41:22;29.30;34.10
11538;DHT22;50159;49.426;11.182;2022-07-19T08:43:52;29.50;34.50
11538;DHT22;50159;49.426;11.182;2022-07-19T08:46:20;29.60;34.50
11538;DHT22;50159;49.426;11.182;2022-07-19T08:48:48;29.70;34.00
11538;DHT22;50159;49.426;11.182;2022-07-19T08:51:20;29.80;33.60
11538;DHT22;50159;49.426;11.182;2022-07-19T08:53:49;29.90;33.50
11538;DHT22;50159;49.426;11.182;2022-07-19T08:56:19;30.00;33.00
11538;DHT22;50159;49.426;11.182;2022-07-19T08:59:05;30.10;33.60
11538;DHT22;50159;49.426;11.182;2022-07-19T09:01:32;30.20;32.70
11538;DHT22;50159;49.426;11.182;2022-07-19T09:04:04;30.30;31.60
11538;DHT22;50159;49.426;11.182;2022-07-19T09:06:45;30.40;31.70
11538;DHT22;50159;49.426;11.182;2022-07-19T09:09:16;30.50;32.30
11538;DHT22;50159;49.426;11.182;2022-07-19T09:12:07;30.60;32.00
11538;DHT22;50159;49.426;11.182;2022-07-19T09:14:36;30.80;31.20
11538;DHT22;50159;49.426;11.182;2022-07-19T09:17:11;30.80;30.70
11538;DHT22;50159;49.426;11.182;2022-07-19T09:19:47;30.80;30.90
11538;DHT22;50159;49.426;11.182;2022-07-19T09:22:18;30.90;30.80
11538;DHT22;50159;49.426;11.182;2022-07-19T09:24:48;31.10;30.70
11538;DHT22;50159;49.426;11.182;2022-07-19T09:27:21;31.20;29.90
11538;DHT22;50159;49.426;11.182;2022-07-19T09:29:54;31.30;30.00
11538;DHT22;50159;49.426;11.182;2022-07-19T09:32:25;31.60;30.10
11538;DHT22;50159;49.426;11.182;2022-07-19T09:34:56;31.60;29.50
11538;DHT22;50159;49.426;11.182;2022-07-19T09:37:33;31.70;29.40
11538;DHT22;50159;49.426;11.182;2022-07-19T09:40:04;31.80;29.60
11538;DHT22;50159;49.426;11.182;2022-07-19T09:42:40;32.00;28.40
11538;DHT22;50159;49.426;11.182;2022-07-19T09:45:13;31.90;28.40
11538;DHT22;50159;49.426;11.182;2022-07-19T09:47:43;32.00;28.10
11538;DHT22;50159;49.426;11.182;2022-07-19T09:50:16;32.10;27.60
11538;DHT22;50159;49.426;11.182;2022-07-19T09:52:45;32.10;27.70
11538;DHT22;50159;49.426;11.182;2022-07-19T09:55:16;32.10;27.50
11538;DHT22;50159;49.426;11.182;2022-07-19T09:57:49;32.20;28.00
11538;DHT22;50159;49.426;11.182;2022-07-19T10:00:21;32.30;27.10
11538;DHT22;50159;49.426;11.182;2022-07-19T10:02:54;32.50;27.00
11538;DHT22;50159;49.426;11.182;2022-07-19T10:05:23;32.60;27.30
11538;DHT22;50159;49.426;11.182;2022-07-19T10:07:51;32.70;27.40
11538;DHT22;50159;49.426;11.182;2022-07-19T10:10:20;32.70;27.50
11538;DHT22;50159;49.426;11.182;2022-07-19T10:12:49;32.80;27.80
11538;DHT22;50159;49.426;11.182;2022-07-19T10:15:18;32.80;27.30
11538;DHT22;50159;49.426;11.182;2022-07-19T10:18:01;33.10;27.50
11538;DHT22;50159;49.426;11.182;2022-07-19T10:20:34;33.20;27.10
11538;DHT22;50159;49.426;11.182;2022-07-19T10:23:03;33.30;26.80
11538;DHT22;50159;49.426;11.182;2022-07-19T10:25:45;33.30;27.10
11538;DHT22;50159;49.426;11.182;2022-07-19T10:31:29;33.40;26.30
11538;DHT22;50159;49.426;11.182;2022-07-19T10:34:03;33.60;26.20
11538;DHT22;50159;49.426;11.182;2022-07-19T10:36:36;33.50;25.70
11538;DHT22;50159;49.426;11.182;2022-07-19T10:42:23;33.60;26.80
11538;DHT22;50159;49.426;11.182;2022-07-19T10:50:08;34.00;26.30
11538;DHT22;50159;49.426;11.182;2022-07-19T10:52:38;34.20;26.30
11538;DHT22;50159;49.426;11.182;2022-07-19T10:57:47;34.20;25.30
11538;DHT22;50159;49.426;11.182;2022-07-19T11:00:27;34.10;25.00
11538;DHT22;50159;49.426;11.182;2022-07-19T11:06:02;34.20;25.20
11538;DHT22;50159;49.426;11.182;2022-07-19T11:08:41;34.30;25.40
11538;DHT22;50159;49.426;11.182;2022-07-19T11:11:13;34.50;25.30
11538;DHT22;50159;49.426;11.182;2022-07-19T11:13:44;34.60;25.90
11538;DHT22;50159;49.426;11.182;2022-07-19T11:16:13;34.70;25.10
11538;DHT22;50159;49.426;11.182;2022-07-19T11:18:41;34.70;24.60
11538;DHT22;50159;49.426;11.182;2022-07-19T11:21:11;34.80;24.30
11538;DHT22;50159;49.426;11.182;2022-07-19T11:23:40;34.90;24.00
11538;DHT22;50159;49.426;11.182;2022-07-19T11:28:49;35.00;24.00
11538;DHT22;50159;49.426;11.182;2022-07-19T11:31:22;35.10;24.30
11538;DHT22;50159;49.426;11.182;2022-07-19T11:33:54;35.10;23.90
11538;DHT22;50159;49.426;11.182;2022-07-19T11:36:24;35.10;24.00
11538;DHT22;50159;49.426;11.182;2022-07-19T11:38:55;35.00;23.00
11538;DHT22;50159;49.426;11.182;2022-07-19T11:41:30;35.10;23.00
11538;DHT22;50159;49.426;11.182;2022-07-19T11:44:06;35.20;23.20
11538;DHT22;50159;49.426;11.182;2022-07-19T11:46:37;35.30;23.90
11538;DHT22;50159;49.426;11.182;2022-07-19T11:49:09;35.30;23.90
11538;DHT22;50159;49.426;11.182;2022-07-19T11:51:36;35.30;23.40
11538;DHT22;50159;49.426;11.182;2022-07-19T11:54:06;35.30;23.90
11538;DHT22;50159;49.426;11.182;2022-07-19T11:56:35;35.20;23.60
11538;DHT22;50159;49.426;11.182;2022-07-19T11:59:08;35.20;24.30
11538;DHT22;50159;49.426;11.182;2022-07-19T12:01:37;35.30;23.80
11538;DHT22;50159;49.426;11.182;2022-07-19T12:04:08;35.50;24.00
11538;DHT22;50159;49.426;11.182;2022-07-19T12:09:25;35.50;23.60
11538;DHT22;50159;49.426;11.182;2022-07-19T12:11:55;35.40;23.10
11538;DHT22;50159;49.426;11.182;2022-07-19T12:14:29;35.40;22.50
11538;DHT22;50159;49.426;11.182;2022-07-19T12:17:20;35.30;23.30
11538;DHT22;50159;49.426;11.182;2022-07-19T12:20:08;35.50;23.40
11538;DHT22;50159;49.426;11.182;2022-07-19T12:23:11;35.70;23.60
11538;DHT22;50159;49.426;11.182;2022-07-19T12:25:43;35.80;23.30
11538;DHT22;50159;49.426;11.182;2022-07-19T12:28:10;36.00;22.90
11538;DHT22;50159;49.426;11.182;2022-07-19T12:30:37;36.00;22.90
11538;DHT22;50159;49.426;11.182;2022-07-19T12:33:12;36.10;22.90
11538;DHT22;50159;49.426;11.182;2022-07-19T12:35:43;36.10;22.80
11538;DHT22;50159;49.426;11.182;2022-07-19T12:38:11;36.10;22.90
11538;DHT22;50159;49.426;11.182;2022-07-19T12:40:41;36.40;23.00
11538;DHT22;50159;49.426;11.182;2022-07-19T12:43:09;36.50;22.70
11538;DHT22;50159;49.426;11.182;2022-07-19T12:45:44;36.70;22.30
11538;DHT22;50159;49.426;11.182;2022-07-19T12:48:14;36.80;22.60
11538;DHT22;50159;49.426;11.182;2022-07-19T12:50:47;36.90;22.10
11538;DHT22;50159;49.426;11.182;2022-07-19T12:53:16;36.90;22.00
11538;DHT22;50159;49.426;11.182;2022-07-19T12:55:44;36.90;21.50
11538;DHT22;50159;49.426;11.182;2022-07-19T12:58:13;36.90;22.20
11538;DHT22;50159;49.426;11.182;2022-07-19T13:01:02;37.00;22.30
11538;DHT22;50159;49.426;11.182;2022-07-19T13:03:29;37.10;22.10
11538;DHT22;50159;49.426;11.182;2022-07-19T13:05:56;37.20;22.00
11538;DHT22;50159;49.426;11.182;2022-07-19T13:08:26;37.30;21.70
11538;DHT22;50159;49.426;11.182;2022-07-19T13:10:55;37.30;21.30
11538;DHT22;50159;49.426;11.182;2022-07-19T13:13:22;37.40;21.20
11538;DHT22;50159;49.426;11.182;2022-07-19T13:15:49;37.50;21.20
11538;DHT22;50159;49.426;11.182;2022-07-19T13:18:17;37.60;21.50
11538;DHT22;50159;49.426;11.182;2022-07-19T13:20:44;37.60;21.30
11538;DHT22;50159;49.426;11.182;2022-07-19T13:23:11;37.70;21.30
11538;DHT22;50159;49.426;11.182;2022-07-19T13:25:38;37.60;20.40
11538;DHT22;50159;49.426;11.182;2022-07-19T13:28:10;37.70;20.60
11538;DHT22;50159;49.426;11.182;2022-07-19T13:30:37;37.60;20.60
11538;DHT22;50159;49.426;11.182;2022-07-19T13:33:04;37.60;20.80
11538;DHT22;50159;49.426;11.182;2022-07-19T13:35:34;37.80;20.70
11538;DHT22;50159;49.426;11.182;2022-07-19T13:38:01;37.90;20.70
11538;DHT22;50159;49.426;11.182;2022-07-19T13:40:29;37.80;20.30
11538;DHT22;50159;49.426;11.182;2022-07-19T13:42:56;37.60;20.60
11538;DHT22;50159;49.426;11.182;2022-07-19T13:45:23;37.50;21.20
11538;DHT22;50159;49.426;11.182;2022-07-19T13:47:50;37.40;20.60
11538;DHT22;50159;49.426;11.182;2022-07-19T13:50:25;37.20;20.60
11538;DHT22;50159;49.426;11.182;2022-07-19T13:52:52;37.20;20.80
11538;DHT22;50159;49.426;11.182;2022-07-19T13:55:19;37.10;20.60
11538;DHT22;50159;49.426;11.182;2022-07-19T13:57:46;37.00;20.80
11538;DHT22;50159;49.426;11.182;2022-07-19T14:00:14;36.90;20.70
11538;DHT22;50159;49.426;11.182;2022-07-19T14:02:44;37.00;21.10
11538;DHT22;50159;49.426;11.182;2022-07-19T14:05:12;37.10;21.30
11538;DHT22;50159;49.426;11.182;2022-07-19T14:07:39;37.20;21.00
11538;DHT22;50159;49.426;11.182;2022-07-19T14:10:06;37.20;20.60
11538;DHT22;50159;49.426;11.182;2022-07-19T14:12:33;37.20;21.60
11538;DHT22;50159;49.426;11.182;2022-07-19T14:15:01;37.30;20.80
11538;DHT22;50159;49.426;11.182;2022-07-19T14:17:29;37.30;20.70
11538;DHT22;50159;49.426;11.182;2022-07-19T14:19:56;37.30;20.70
11538;DHT22;50159;49.426;11.182;2022-07-19T14:22:23;37.40;21.10
11538;DHT22;50159;49.426;11.182;2022-07-19T14:24:50;37.40;21.30
11538;DHT22;50159;49.426;11.182;2022-07-19T14:27:16;37.50;21.30
11538;DHT22;50159;49.426;11.182;2022-07-19T14:29:43;37.70;20.60
11538;DHT22;50159;49.426;11.182;2022-07-19T14:32:10;37.80;21.10
11538;DHT22;50159;49.426;11.182;2022-07-19T14:34:37;38.40;20.50
11538;DHT22;50159;49.426;11.182;2022-07-19T14:37:06;39.20;19.50
11538;DHT22;50159;49.426;11.182;2022-07-19T14:39:36;40.60;18.60
11538;DHT22;50159;49.426;11.182;2022-07-19T14:42:04;42.20;17.60
11538;DHT22;50159;49.426;11.182;2022-07-19T14:44:31;43.60;17.00
11538;DHT22;50159;49.426;11.182;2022-07-19T14:46:59;44.50;16.20
11538;DHT22;50159;49.426;11.182;2022-07-19T14:49:26;45.20;16.00
11538;DHT22;50159;49.426;11.182;2022-07-19T14:51:53;46.10;15.80
11538;DHT22;50159;49.426;11.182;2022-07-19T14:54:20;46.70;15.50
11538;DHT22;50159;49.426;11.182;2022-07-19T14:56:51;47.60;19.60
11538;DHT22;50159;49.426;11.182;2022-07-19T14:59:21;47.70;14.20
11538;DHT22;50159;49.426;11.182;2022-07-19T15:01:49;48.00;14.40
11538;DHT22;50159;49.426;11.182;2022-07-19T15:04:18;48.30;14.00
11538;DHT22;50159;49.426;11.182;2022-07-19T15:06:45;48.10;13.70
11538;DHT22;50159;49.426;11.182;2022-07-19T15:09:13;48.00;13.80
11538;DHT22;50159;49.426;11.182;2022-07-19T15:11:42;47.80;13.50
11538;DHT22;50159;49.426;11.182;2022-07-19T15:14:09;47.80;13.90
11538;DHT22;50159;49.426;11.182;2022-07-19T15:16:36;48.90;14.30
11538;DHT22;50159;49.426;11.182;2022-07-19T15:19:04;48.00;13.80
11538;DHT22;50159;49.426;11.182;2022-07-19T15:21:31;47.60;13.80
11538;DHT22;50159;49.426;11.182;2022-07-19T15:24:02;47.10;14.30
11538;DHT22;50159;49.426;11.182;2022-07-19T15:26:30;46.90;14.20
11538;DHT22;50159;49.426;11.182;2022-07-19T15:28:57;47.00;14.40
11538;DHT22;50159;49.426;11.182;2022-07-19T15:31:24;47.10;14.10
11538;DHT22;50159;49.426;11.182;2022-07-19T15:33:51;47.10;14.00
11538;DHT22;50159;49.426;11.182;2022-07-19T15:36:18;46.80;14.30
11538;DHT22;50159;49.426;11.182;2022-07-19T15:38:45;46.50;14.40
11538;DHT22;50159;49.426;11.182;2022-07-19T15:41:13;46.00;14.60
11538;DHT22;50159;49.426;11.182;2022-07-19T15:43:53;45.00;15.20
11538;DHT22;50159;49.426;11.182;2022-07-19T15:46:21;43.80;16.10
11538;DHT22;50159;49.426;11.182;2022-07-19T15:48:48;42.70;17.20